Huvudsida
METAR-TAF:

METAR-TAF

Flygplatser :

Pajas Blancas Airport

Córdoba, Argentina

latitud: 31-19S, longitud: 064-13W, höjd: 484 m

Aktuellt väderrapport

Denna rapport gjordes för 19 minuter sedan, klockan 10:00 UTC
Vind 7 kt från nordväst
Temperatur -3°C
Fuktighet 63%
Tryck 1033 hPa
Sikt 10 km eller mer
Inga moln under 1 500 m eller inga cumulonimbus

METAR: SACO 201000Z 32007KT CAVOK M03/M09 Q1033 NOSIG

Tid: 07:19 (10:19 UTC)

Väderprognos

Denna rapport gjordes för 5 timmar och 19 minuter sedan, klockan 05:00 UTC
Prognos gäller från 20 kl. 06 UTC till 21 kl. 06 UTC
Vind 5 kt från väst/nordväst
Sikt 10 km eller mer
Inga moln under 1 500 m eller inga cumulonimbus
Blir
från 20 kl. 13 UTC till 20 kl. 15 UTC
Vind 10 kt från ost/nordost

TAF: SACO 200500Z 2006/2106 29005KT CAVOK TX13/2018Z TNM02/2010Z BECMG 2013/2015 07010KT

Aktuella väderrapporter och prognoser från 4000 flygplatser (METAR- och TAF-rapporter).

De tillgängliga stationerna syns som gula och röda prickar på kartan.

För musen över prickarna för att se namnen på stationerna.

Klicka sedan för att få väderrapporter och prognoser.

För att ändra kartan: Klicka på de gröna knapparna med ett svart kors på för att zooma in; den gröna knappen med ett streck på för att zooma ut; eller på de gröna pilarna för angränsande kartor.


METAR-TAF: